Time;durP1;ratioP1;P1;durP2;ratioP2;P2;SDS_P1;SDS_P2;PMS_P1;PMS_P2;Temp;Humidity;BMP_temperature;BMP_pressure;BME280_temperature;BME280_humidity;BME280_pressure;Samples;Min_cycle;Max_cycle;Signal;HPM_P1;HPM_P2
2023/12/25 00:01:28;;;;;;;14.65;5.30;;;;;;;;;;6391110;22;20002;-76
2023/12/25 00:03:53;;;;;;;11.30;4.75;;;;;;;;;;6361749;22;20048;-77
2023/12/25 00:06:19;;;;;;;11.63;4.47;;;;;;;;;;6362620;22;20018;-77
2023/12/25 00:08:44;;;;;;;13.10;4.68;;;;;;;;;;6390943;22;20022;-77
2023/12/25 00:11:10;;;;;;;15.00;5.05;;;;;;;;;;6361565;22;20456;-76
2023/12/25 00:13:36;;;;;;;13.85;4.82;;;;;;;;;;6391410;22;19998;-77
2023/12/25 00:16:01;;;;;;;13.75;5.78;;;;;;;;;;6362504;22;20013;-77
2023/12/25 00:18:27;;;;;;;11.75;5.57;;;;;;;;;;6362226;22;20338;-76
2023/12/25 00:20:52;;;;;;;15.43;6.20;;;;;;;;;;6362197;22;20018;-76
2023/12/25 00:23:17;;;;;;;22.88;5.95;;;;;;;;;;6391313;22;20009;-76
2023/12/25 00:25:43;;;;;;;12.70;5.40;;;;;;;;;;6390648;22;19993;-76
2023/12/25 00:28:08;;;;;;;18.98;6.82;;;;;;;;;;6390717;22;20074;-76
2023/12/25 00:30:33;;;;;;;11.75;5.53;;;;;;;;;;6363249;22;20081;-76
2023/12/25 00:32:59;;;;;;;14.93;5.75;;;;;;;;;;6391607;22;20033;-76
2023/12/25 00:35:24;;;;;;;11.15;5.18;;;;;;;;;;6393131;22;20009;-76
2023/12/25 00:37:51;;;;;;;15.95;5.82;;;;;;;;;;6365479;22;20085;-76
2023/12/25 00:40:17;;;;;;;17.48;6.53;;;;;;;;;;6393476;22;20010;-76
2023/12/25 00:42:42;;;;;;;20.10;6.43;;;;;;;;;;6366082;22;20089;-76
2023/12/25 00:45:08;;;;;;;12.10;4.60;;;;;;;;;;6399408;22;20058;-76
2023/12/25 00:47:33;;;;;;;12.15;4.68;;;;;;;;;;6381948;22;19998;-76
2023/12/25 00:49:59;;;;;;;12.18;5.15;;;;;;;;;;6379987;22;20039;-76
2023/12/25 00:52:24;;;;;;;17.35;5.63;;;;;;;;;;6396274;22;19990;-76
2023/12/25 00:54:49;;;;;;;11.32;5.57;;;;;;;;;;6393755;22;20424;-76
2023/12/25 00:57:15;;;;;;;14.68;4.65;;;;;;;;;;6392678;22;20018;-76
2023/12/25 00:59:40;;;;;;;12.88;4.68;;;;;;;;;;6393139;22;20014;-75
2023/12/25 01:02:06;;;;;;;11.30;3.90;;;;;;;;;;6364312;22;20002;-75
2023/12/25 01:04:31;;;;;;;12.73;4.22;;;;;;;;;;6393208;22;20105;-76
2023/12/25 01:06:56;;;;;;;12.32;4.28;;;;;;;;;;6364203;22;20523;-75
2023/12/25 01:09:22;;;;;;;12.23;5.05;;;;;;;;;;6364125;22;20009;-76
2023/12/25 01:11:47;;;;;;;12.65;5.13;;;;;;;;;;6392705;22;20054;-76
2023/12/25 01:14:13;;;;;;;13.65;4.50;;;;;;;;;;6363735;22;19998;-75
2023/12/25 01:16:38;;;;;;;11.98;4.50;;;;;;;;;;6393244;22;19997;-76
2023/12/25 01:19:04;;;;;;;11.40;4.82;;;;;;;;;;6364234;22;20020;-76
2023/12/25 01:21:32;;;;;;;13.35;4.72;;;;;;;;;;6363157;22;20010;-76
2023/12/25 01:23:57;;;;;;;13.32;4.97;;;;;;;;;;6364257;22;20010;-76
2023/12/25 01:26:23;;;;;;;10.45;4.78;;;;;;;;;;6392061;22;20059;-76
2023/12/25 01:28:48;;;;;;;17.05;5.50;;;;;;;;;;6364309;22;19994;-76
2023/12/25 01:31:13;;;;;;;6.13;3.17;;;;;;;;;;6392420;22;20010;-77
2023/12/25 01:33:39;;;;;;;9.52;3.75;;;;;;;;;;6363099;22;20528;-76
2023/12/25 01:36:05;;;;;;;10.52;3.75;;;;;;;;;;6392426;22;20289;-76
2023/12/25 01:38:31;;;;;;;20.52;4.88;;;;;;;;;;6392350;22;20014;-76
2023/12/25 01:40:56;;;;;;;14.13;4.60;;;;;;;;;;6393359;22;20002;-76
2023/12/25 01:43:22;;;;;;;11.02;5.10;;;;;;;;;;6398314;22;20014;-77
2023/12/25 01:45:47;;;;;;;16.85;5.13;;;;;;;;;;6410589;22;20008;-76
2023/12/25 01:48:13;;;;;;;11.93;4.03;;;;;;;;;;6404624;22;20457;-76
2023/12/25 01:50:39;;;;;;;9.20;3.67;;;;;;;;;;6393399;22;20009;-76
2023/12/25 01:53:05;;;;;;;8.65;4.20;;;;;;;;;;6365573;22;20093;-76
2023/12/25 01:55:31;;;;;;;10.75;4.85;;;;;;;;;;6393572;22;20018;-76
2023/12/25 01:57:57;;;;;;;11.73;4.20;;;;;;;;;;6364967;22;20084;-76
2023/12/25 02:00:22;;;;;;;10.48;3.70;;;;;;;;;;6364543;22;20014;-76
2023/12/25 02:02:50;;;;;;;8.93;3.90;;;;;;;;;;6366336;22;20021;-76
2023/12/25 02:05:16;;;;;;;9.88;4.03;;;;;;;;;;6402872;22;20012;-76
2023/12/25 02:07:46;;;;;;;16.38;5.35;;;;;;;;;;6407774;22;20017;-76
2023/12/25 02:10:25;;;;;;;14.77;4.47;;;;;;;;;;6393917;22;20082;-76
2023/12/25 02:12:50;;;;;;;12.50;4.18;;;;;;;;;;6391342;22;20089;-76
2023/12/25 02:15:16;;;;;;;12.50;4.38;;;;;;;;;;6363101;22;20078;-76
2023/12/25 02:17:41;;;;;;;12.52;5.15;;;;;;;;;;6363453;22;20014;-77
2023/12/25 02:20:07;;;;;;;16.92;5.28;;;;;;;;;;6391935;22;20496;-77
2023/12/25 02:22:34;;;;;;;12.57;4.43;;;;;;;;;;6392381;22;20006;-76
2023/12/25 02:25:02;;;;;;;13.75;4.30;;;;;;;;;;6391799;22;20014;-77
2023/12/25 02:27:28;;;;;;;10.77;4.35;;;;;;;;;;6363465;22;20692;-76
2023/12/25 02:29:53;;;;;;;15.75;4.47;;;;;;;;;;6390783;22;20461;-77
2023/12/25 02:32:18;;;;;;;15.18;4.32;;;;;;;;;;6362781;22;20012;-76
2023/12/25 02:34:47;;;;;;;13.45;4.30;;;;;;;;;;6391983;22;20004;-76
2023/12/25 02:37:12;;;;;;;18.02;5.20;;;;;;;;;;6391536;22;20519;-75
2023/12/25 02:39:38;;;;;;;9.75;5.13;;;;;;;;;;6390727;22;20013;-76
2023/12/25 02:42:03;;;;;;;11.88;4.47;;;;;;;;;;6391324;22;20423;-76
2023/12/25 02:44:29;;;;;;;15.68;4.60;;;;;;;;;;6391298;22;20074;-77
2023/12/25 02:46:54;;;;;;;21.98;4.60;;;;;;;;;;6363452;22;20006;-76
2023/12/25 02:49:19;;;;;;;8.90;4.60;;;;;;;;;;6391289;22;20014;-76
2023/12/25 02:51:45;;;;;;;12.25;4.55;;;;;;;;;;6390892;22;20013;-76
2023/12/25 02:54:10;;;;;;;11.85;3.88;;;;;;;;;;6391105;22;20010;-76
2023/12/25 02:56:35;;;;;;;10.50;3.92;;;;;;;;;;6391116;22;20020;-76
2023/12/25 02:59:01;;;;;;;10.35;4.03;;;;;;;;;;6362715;22;20344;-76
2023/12/25 03:01:26;;;;;;;13.70;4.70;;;;;;;;;;6391814;22;19998;-76
2023/12/25 03:03:51;;;;;;;10.10;3.80;;;;;;;;;;6363002;22;20424;-76
2023/12/25 03:06:17;;;;;;;7.35;3.10;;;;;;;;;;6391331;22;20106;-77
2023/12/25 03:08:42;;;;;;;9.95;3.72;;;;;;;;;;6361673;22;20024;-76
2023/12/25 03:11:08;;;;;;;7.45;3.42;;;;;;;;;;6388948;22;20077;-77
2023/12/25 03:13:34;;;;;;;13.30;4.38;;;;;;;;;;6363721;22;20012;-76
2023/12/25 03:16:04;;;;;;;10.25;4.00;;;;;;;;;;6391229;22;20776;-76
2023/12/25 03:18:29;;;;;;;7.13;3.25;;;;;;;;;;6364138;22;20013;-76
2023/12/25 03:20:55;;;;;;;16.27;3.67;;;;;;;;;;6364105;22;20018;-76
2023/12/25 03:23:20;;;;;;;14.10;4.45;;;;;;;;;;6368692;22;20058;-76
2023/12/25 03:25:45;;;;;;;10.73;3.92;;;;;;;;;;6407156;22;20028;-76
2023/12/25 03:28:11;;;;;;;8.15;3.17;;;;;;;;;;6407218;22;20010;-76
2023/12/25 03:30:36;;;;;;;11.30;3.22;;;;;;;;;;6393376;22;20062;-76
2023/12/25 03:33:02;;;;;;;7.50;3.05;;;;;;;;;;6364043;22;20048;-76
2023/12/25 03:35:27;;;;;;;8.18;2.95;;;;;;;;;;6391190;22;20077;-76
2023/12/25 03:37:52;;;;;;;11.77;3.60;;;;;;;;;;6392451;22;20484;-76
2023/12/25 03:40:18;;;;;;;9.55;3.20;;;;;;;;;;6390354;22;20013;-76
2023/12/25 03:42:43;;;;;;;10.02;3.00;;;;;;;;;;6362463;22;20061;-77
2023/12/25 03:45:08;;;;;;;11.15;4.15;;;;;;;;;;6362523;22;20010;-76
2023/12/25 03:47:34;;;;;;;9.45;2.80;;;;;;;;;;6389964;22;20017;-76
2023/12/25 03:49:59;;;;;;;10.48;2.63;;;;;;;;;;6362772;22;20457;-76
2023/12/25 03:52:24;;;;;;;10.88;2.67;;;;;;;;;;6362511;22;20025;-76
2023/12/25 03:54:50;;;;;;;7.47;2.38;;;;;;;;;;6362369;22;20066;-77
2023/12/25 03:57:15;;;;;;;4.90;2.05;;;;;;;;;;6391066;22;20158;-76
2023/12/25 03:59:40;;;;;;;8.82;3.03;;;;;;;;;;6390676;22;20861;-77
2023/12/25 04:02:06;;;;;;;7.47;2.45;;;;;;;;;;6362370;22;20025;-77
2023/12/25 04:04:31;;;;;;;7.70;2.97;;;;;;;;;;6390590;22;20033;-77
2023/12/25 04:06:57;;;;;;;5.75;1.92;;;;;;;;;;6362552;22;20025;-77
2023/12/25 04:09:22;;;;;;;6.65;2.17;;;;;;;;;;6392227;22;20425;-77
2023/12/25 04:11:50;;;;;;;10.55;2.13;;;;;;;;;;6364121;22;20024;-77
2023/12/25 04:14:16;;;;;;;10.30;1.92;;;;;;;;;;6364004;22;20618;-77
2023/12/25 04:16:41;;;;;;;3.83;1.75;;;;;;;;;;6393511;22;19994;-77
2023/12/25 04:19:06;;;;;;;7.22;2.00;;;;;;;;;;6391904;22;20394;-77
2023/12/25 04:21:32;;;;;;;3.60;1.92;;;;;;;;;;6392423;22;20026;-77
2023/12/25 04:23:58;;;;;;;4.03;1.90;;;;;;;;;;6393511;22;20021;-77
2023/12/25 04:26:25;;;;;;;8.05;2.25;;;;;;;;;;6391924;22;20008;-77
2023/12/25 04:28:51;;;;;;;5.07;1.88;;;;;;;;;;6393647;22;20719;-77
2023/12/25 04:31:16;;;;;;;4.00;1.50;;;;;;;;;;6392155;22;20085;-77
2023/12/25 04:33:42;;;;;;;5.57;2.00;;;;;;;;;;6392388;22;20040;-77
2023/12/25 04:36:08;;;;;;;6.00;2.15;;;;;;;;;;6392921;22;20013;-77
2023/12/25 04:38:33;;;;;;;6.25;1.80;;;;;;;;;;6393585;22;20018;-77
2023/12/25 04:40:59;;;;;;;5.13;1.98;;;;;;;;;;6395120;22;20006;-77
2023/12/25 04:43:25;;;;;;;3.25;1.73;;;;;;;;;;6401957;22;19994;-77
2023/12/25 04:45:50;;;;;;;7.25;1.90;;;;;;;;;;6378773;22;20021;-77
2023/12/25 04:48:16;;;;;;;4.22;1.45;;;;;;;;;;6368458;22;20010;-77
2023/12/25 04:50:42;;;;;;;6.05;1.95;;;;;;;;;;6392195;22;20009;-78
2023/12/25 04:53:08;;;;;;;5.97;1.58;;;;;;;;;;6392508;22;20007;-77
2023/12/25 04:55:33;;;;;;;8.02;2.60;;;;;;;;;;6364644;22;20006;-77
2023/12/25 04:57:59;;;;;;;6.55;1.90;;;;;;;;;;6392259;22;20021;-78
2023/12/25 05:00:24;;;;;;;7.53;1.90;;;;;;;;;;6363689;22;20013;-77
2023/12/25 05:02:49;;;;;;;5.38;2.22;;;;;;;;;;6392938;22;20017;-77
2023/12/25 05:05:15;;;;;;;5.05;2.08;;;;;;;;;;6391545;22;19994;-77
2023/12/25 05:07:41;;;;;;;4.15;1.60;;;;;;;;;;6392817;22;20122;-77
2023/12/25 05:10:07;;;;;;;7.30;1.90;;;;;;;;;;6364692;22;20513;-77
2023/12/25 05:12:32;;;;;;;7.03;1.92;;;;;;;;;;6392188;22;20026;-77
2023/12/25 05:14:57;;;;;;;4.25;1.65;;;;;;;;;;6391470;22;20010;-77
2023/12/25 05:17:23;;;;;;;7.28;2.22;;;;;;;;;;6393216;22;20010;-77
2023/12/25 05:19:48;;;;;;;4.78;2.00;;;;;;;;;;6393334;22;20005;-77
2023/12/25 05:22:15;;;;;;;4.93;1.67;;;;;;;;;;6364015;22;20109;-77
2023/12/25 05:24:40;;;;;;;4.78;1.42;;;;;;;;;;6392366;22;20141;-77
2023/12/25 05:27:06;;;;;;;3.45;1.30;;;;;;;;;;6392397;22;20055;-78
2023/12/25 05:29:31;;;;;;;5.13;1.90;;;;;;;;;;6364144;22;20476;-77
2023/12/25 05:31:57;;;;;;;10.07;2.15;;;;;;;;;;6365714;22;19997;-77
2023/12/25 05:34:23;;;;;;;3.83;1.70;;;;;;;;;;6396010;22;20009;-77
2023/12/25 05:36:48;;;;;;;3.30;1.80;;;;;;;;;;6396462;22;20024;-77
2023/12/25 05:39:14;;;;;;;4.72;1.63;;;;;;;;;;6373317;22;20435;-78
2023/12/25 05:41:41;;;;;;;4.07;1.58;;;;;;;;;;6392577;22;20463;-77
2023/12/25 05:44:06;;;;;;;5.65;1.63;;;;;;;;;;6364593;22;20500;-77
2023/12/25 05:46:32;;;;;;;3.47;1.50;;;;;;;;;;6393970;22;19998;-78
2023/12/25 05:48:57;;;;;;;3.05;1.67;;;;;;;;;;6393059;22;20466;-77
2023/12/25 05:51:22;;;;;;;4.72;1.48;;;;;;;;;;6392722;22;20464;-78
2023/12/25 05:53:48;;;;;;;4.20;1.60;;;;;;;;;;6363784;22;20331;-78
2023/12/25 05:56:13;;;;;;;2.72;1.20;;;;;;;;;;6393349;22;20001;-77
2023/12/25 05:58:39;;;;;;;4.30;1.40;;;;;;;;;;6394267;22;19997;-78
2023/12/25 06:01:06;;;;;;;1.98;1.38;;;;;;;;;;6395768;22;20050;-78
2023/12/25 06:03:31;;;;;;;2.53;1.45;;;;;;;;;;6378384;22;20016;-78
2023/12/25 06:05:58;;;;;;;3.88;1.33;;;;;;;;;;6384579;22;20045;-78
2023/12/25 06:08:24;;;;;;;2.25;1.20;;;;;;;;;;6396159;22;20010;-78
2023/12/25 06:10:50;;;;;;;3.33;1.20;;;;;;;;;;6393484;22;20062;-78
2023/12/25 06:13:15;;;;;;;2.25;1.13;;;;;;;;;;6392679;22;20006;-78
2023/12/25 06:15:41;;;;;;;2.35;1.40;;;;;;;;;;6363912;22;20015;-78
2023/12/25 06:18:06;;;;;;;3.97;1.20;;;;;;;;;;6363606;22;20016;-78
2023/12/25 06:20:32;;;;;;;1.83;1.25;;;;;;;;;;6363006;22;20005;-78
2023/12/25 06:22:57;;;;;;;2.22;1.30;;;;;;;;;;6392376;22;20001;-78
2023/12/25 06:25:22;;;;;;;4.75;1.20;;;;;;;;;;6363337;22;20029;-78
2023/12/25 06:27:48;;;;;;;2.05;1.27;;;;;;;;;;6363592;22;20010;-78
2023/12/25 06:30:13;;;;;;;3.22;1.20;;;;;;;;;;6363134;22;20026;-78
2023/12/25 06:32:42;;;;;;;5.20;1.50;;;;;;;;;;6391198;22;20010;-78
2023/12/25 06:35:07;;;;;;;3.42;1.60;;;;;;;;;;6391557;22;20073;-78
2023/12/25 06:37:33;;;;;;;3.67;1.50;;;;;;;;;;6391876;22;20039;-78
2023/12/25 06:39:58;;;;;;;4.15;1.27;;;;;;;;;;6390691;22;20089;-77
2023/12/25 06:42:23;;;;;;;3.38;1.70;;;;;;;;;;6391748;22;20870;-78
2023/12/25 06:44:49;;;;;;;4.70;1.40;;;;;;;;;;6362182;22;20006;-78
2023/12/25 06:47:14;;;;;;;2.92;1.50;;;;;;;;;;6391124;22;19998;-77
2023/12/25 06:49:39;;;;;;;4.35;1.73;;;;;;;;;;6391818;22;20001;-77
2023/12/25 06:52:05;;;;;;;2.85;1.17;;;;;;;;;;6362624;22;20419;-78
2023/12/25 06:54:31;;;;;;;2.75;1.30;;;;;;;;;;6390929;22;20438;-77
2023/12/25 06:56:56;;;;;;;1.65;1.17;;;;;;;;;;6390992;22;20009;-78
2023/12/25 06:59:21;;;;;;;4.00;1.70;;;;;;;;;;6362564;22;20484;-78
2023/12/25 07:01:47;;;;;;;6.57;1.80;;;;;;;;;;6389732;22;20958;-78
2023/12/25 07:04:12;;;;;;;3.10;1.50;;;;;;;;;;6390650;22;20014;-77
2023/12/25 07:06:38;;;;;;;2.05;1.10;;;;;;;;;;6362077;22;20022;-78
2023/12/25 07:09:03;;;;;;;4.05;1.63;;;;;;;;;;6391450;22;20012;-78
2023/12/25 07:11:28;;;;;;;5.90;1.48;;;;;;;;;;6362862;22;20013;-78
2023/12/25 07:13:56;;;;;;;5.22;1.67;;;;;;;;;;6363656;22;20085;-78
2023/12/25 07:16:23;;;;;;;2.67;1.55;;;;;;;;;;6363215;22;20016;-78
2023/12/25 07:18:49;;;;;;;5.00;1.50;;;;;;;;;;6392657;22;20010;-78
2023/12/25 07:21:15;;;;;;;2.63;1.60;;;;;;;;;;6397864;22;20474;-77
2023/12/25 07:23:41;;;;;;;4.30;1.90;;;;;;;;;;6404949;22;20014;-78
2023/12/25 07:26:07;;;;;;;6.07;1.95;;;;;;;;;;6367490;22;19998;-78
2023/12/25 07:28:32;;;;;;;3.65;1.85;;;;;;;;;;6391519;22;20054;-77
2023/12/25 07:30:58;;;;;;;4.82;2.17;;;;;;;;;;6390773;22;20017;-78
2023/12/25 07:33:23;;;;;;;5.25;1.85;;;;;;;;;;6390634;22;20037;-78
2023/12/25 07:35:49;;;;;;;4.68;1.80;;;;;;;;;;6390831;22;20021;-78
2023/12/25 07:38:14;;;;;;;4.38;2.00;;;;;;;;;;6389377;22;20017;-79
2023/12/25 07:40:40;;;;;;;3.95;1.70;;;;;;;;;;6388461;22;20047;-78
2023/12/25 07:43:09;;;;;;;6.05;2.30;;;;;;;;;;6389971;22;20751;-78
2023/12/25 07:45:35;;;;;;;4.93;2.15;;;;;;;;;;6390835;22;20089;-78
2023/12/25 07:48:00;;;;;;;4.45;2.22;;;;;;;;;;6391165;22;20398;-78
2023/12/25 07:50:25;;;;;;;5.50;2.45;;;;;;;;;;6361290;22;20085;-78
2023/12/25 07:52:51;;;;;;;7.05;2.15;;;;;;;;;;6390660;22;20002;-78
2023/12/25 07:55:19;;;;;;;5.22;2.45;;;;;;;;;;6362511;22;20089;-78
2023/12/25 07:57:44;;;;;;;9.23;2.80;;;;;;;;;;6389138;22;20447;-77
2023/12/25 08:00:10;;;;;;;8.05;2.55;;;;;;;;;;6391300;22;20048;-78
2023/12/25 08:02:36;;;;;;;6.93;2.88;;;;;;;;;;6389663;22;20084;-78
2023/12/25 08:05:02;;;;;;;8.30;2.90;;;;;;;;;;6390538;22;20028;-78
2023/12/25 08:07:28;;;;;;;7.35;3.22;;;;;;;;;;6363292;22;20021;-78
2023/12/25 08:09:53;;;;;;;8.70;3.90;;;;;;;;;;6390239;22;20014;-78
2023/12/25 08:12:18;;;;;;;7.95;3.03;;;;;;;;;;6389812;22;20032;-78
2023/12/25 08:14:44;;;;;;;5.35;2.92;;;;;;;;;;6390163;22;20464;-78
2023/12/25 08:17:09;;;;;;;9.15;4.07;;;;;;;;;;6390659;22;20021;-78
2023/12/25 08:19:35;;;;;;;9.10;3.40;;;;;;;;;;6390261;22;20039;-78
2023/12/25 08:22:00;;;;;;;6.80;2.78;;;;;;;;;;6389735;22;20018;-78
2023/12/25 08:24:26;;;;;;;5.47;2.63;;;;;;;;;;6362876;22;20066;-78
2023/12/25 08:26:51;;;;;;;9.40;2.90;;;;;;;;;;6390782;22;20064;-78
2023/12/25 08:29:17;;;;;;;5.15;2.20;;;;;;;;;;6390831;22;20058;-77
2023/12/25 08:31:42;;;;;;;5.32;2.40;;;;;;;;;;6392161;22;20026;-76
2023/12/25 08:34:08;;;;;;;5.60;2.30;;;;;;;;;;6388870;22;20360;-76
2023/12/25 08:36:34;;;;;;;7.10;2.78;;;;;;;;;;6391197;22;20363;-77
2023/12/25 08:38:59;;;;;;;4.25;2.13;;;;;;;;;;6394880;22;20110;-77
2023/12/25 08:41:24;;;;;;;5.13;2.60;;;;;;;;;;6404598;22;20036;-77
2023/12/25 08:43:50;;;;;;;6.97;2.38;;;;;;;;;;6411419;22;20049;-76
2023/12/25 08:46:15;;;;;;;7.32;2.45;;;;;;;;;;6364121;22;20010;-77
2023/12/25 08:48:40;;;;;;;8.50;2.60;;;;;;;;;;6389566;22;20496;-77
2023/12/25 08:51:06;;;;;;;7.88;2.88;;;;;;;;;;6358333;22;20013;-78
2023/12/25 08:53:31;;;;;;;8.68;3.05;;;;;;;;;;6360090;22;20009;-77
2023/12/25 08:55:58;;;;;;;7.70;2.42;;;;;;;;;;6393008;22;20005;-77
2023/12/25 08:58:24;;;;;;;8.85;3.13;;;;;;;;;;6392834;22;20555;-77
2023/12/25 09:00:50;;;;;;;8.18;3.38;;;;;;;;;;6363851;22;20028;-77
2023/12/25 09:03:15;;;;;;;7.60;3.25;;;;;;;;;;6392229;22;20014;-77
2023/12/25 09:05:41;;;;;;;5.82;2.53;;;;;;;;;;6390795;22;20014;-77
2023/12/25 09:08:07;;;;;;;7.55;2.78;;;;;;;;;;6392433;22;19998;-76
2023/12/25 09:10:34;;;;;;;9.82;3.30;;;;;;;;;;6364908;22;20349;-76
2023/12/25 09:12:59;;;;;;;8.40;2.80;;;;;;;;;;6393817;22;20109;-76
2023/12/25 09:15:24;;;;;;;6.22;2.88;;;;;;;;;;6393063;22;20106;-76
2023/12/25 09:17:50;;;;;;;7.72;2.00;;;;;;;;;;6364491;22;20010;-77
2023/12/25 09:20:16;;;;;;;7.00;2.80;;;;;;;;;;6392604;22;19998;-76
2023/12/25 09:22:41;;;;;;;5.47;2.15;;;;;;;;;;6366905;22;20033;-76
2023/12/25 09:25:07;;;;;;;2.90;1.75;;;;;;;;;;6379504;22;20021;-77
2023/12/25 09:27:32;;;;;;;2.45;1.77;;;;;;;;;;6387274;22;20075;-76
2023/12/25 09:29:58;;;;;;;6.05;2.13;;;;;;;;;;6369566;22;20001;-75
2023/12/25 09:32:23;;;;;;;4.07;2.25;;;;;;;;;;6392275;22;20013;-76
2023/12/25 09:34:49;;;;;;;3.58;1.73;;;;;;;;;;6392769;22;20081;-76
2023/12/25 09:37:15;;;;;;;3.35;2.08;;;;;;;;;;6392351;22;20021;-75
2023/12/25 09:39:43;;;;;;;3.50;1.55;;;;;;;;;;6386791;22;20020;-76
2023/12/25 09:42:11;;;;;;;4.63;2.08;;;;;;;;;;6382458;22;20037;-75
2023/12/25 09:44:40;;;;;;;3.08;1.35;;;;;;;;;;6385623;22;20072;-76
2023/12/25 09:47:06;;;;;;;3.13;1.85;;;;;;;;;;6387839;22;20002;-76
2023/12/25 09:49:36;;;;;;;4.78;2.03;;;;;;;;;;6359546;22;20012;-75
2023/12/25 09:52:02;;;;;;;4.03;1.70;;;;;;;;;;6391542;22;20026;-75
2023/12/25 09:54:28;;;;;;;3.42;1.50;;;;;;;;;;6392472;22;20021;-76
2023/12/25 09:56:57;;;;;;;3.60;1.63;;;;;;;;;;6365897;22;20014;-77
2023/12/25 09:59:23;;;;;;;3.53;1.70;;;;;;;;;;6370658;22;20016;-76
2023/12/25 10:01:50;;;;;;;1.65;1.15;;;;;;;;;;6378070;22;20092;-77
2023/12/25 10:04:15;;;;;;;3.80;1.42;;;;;;;;;;6361252;22;20010;-75
2023/12/25 10:06:44;;;;;;;2.78;1.20;;;;;;;;;;6389521;22;20314;-76
2023/12/25 10:09:10;;;;;;;9.38;2.50;;;;;;;;;;6361844;22;20045;-76
2023/12/25 10:11:35;;;;;;;4.50;1.77;;;;;;;;;;6387272;22;20002;-76
2023/12/25 10:14:04;;;;;;;4.68;1.63;;;;;;;;;;6361360;22;19994;-76
2023/12/25 10:16:29;;;;;;;5.85;2.05;;;;;;;;;;6384070;22;20516;-76
2023/12/25 10:18:56;;;;;;;2.63;1.52;;;;;;;;;;6386762;22;20013;-75
2023/12/25 10:21:21;;;;;;;6.03;1.73;;;;;;;;;;6358826;22;20021;-73
2023/12/25 10:23:48;;;;;;;3.70;1.90;;;;;;;;;;6359289;22;20662;-75
2023/12/25 10:26:36;;;;;;;6.95;2.60;;;;;;;;;;6387709;22;20009;-75
2023/12/25 10:29:08;;;;;;;4.78;1.80;;;;;;;;;;6358387;22;20006;-77
2023/12/25 10:31:35;;;;;;;5.95;1.90;;;;;;;;;;6358919;22;20002;-77
2023/12/25 10:34:01;;;;;;;5.78;1.80;;;;;;;;;;6388074;22;20010;-75
2023/12/25 10:36:26;;;;;;;4.65;2.10;;;;;;;;;;6357052;22;20062;-74
2023/12/25 10:38:52;;;;;;;4.20;2.15;;;;;;;;;;6357469;22;20018;-74
2023/12/25 10:41:26;;;;;;;6.97;2.97;;;;;;;;;;6356184;22;20022;-74
2023/12/25 10:43:54;;;;;;;4.63;2.38;;;;;;;;;;6355761;22;20051;-75
2023/12/25 10:46:21;;;;;;;6.38;2.60;;;;;;;;;;6387631;22;20044;-75
2023/12/25 10:48:50;;;;;;;3.15;1.83;;;;;;;;;;6387720;22;20009;-75
2023/12/25 10:51:34;;;;;;;4.72;2.00;;;;;;;;;;6387846;22;20010;-75
2023/12/25 10:54:03;;;;;;;;;;;;;;;;;;6359412;22;20009;-76
2023/12/25 10:56:35;;;;;;;3.63;2.08;;;;;;;;;;6358016;22;19910;-76
2023/12/25 10:59:20;;;;;;;4.78;1.90;;;;;;;;;;6388253;22;20002;-76
2023/12/25 11:01:48;;;;;;;5.15;2.20;;;;;;;;;;6360485;22;20006;-76
2023/12/25 11:04:17;;;;;;;7.82;2.65;;;;;;;;;;6388340;22;20014;-76
2023/12/25 11:06:44;;;;;;;2.22;1.15;;;;;;;;;;6359689;22;20078;-76
2023/12/25 11:09:14;;;;;;;6.93;2.28;;;;;;;;;;6387210;22;20037;-76
2023/12/25 11:11:41;;;;;;;3.50;1.63;;;;;;;;;;6387629;22;20010;-76
2023/12/25 11:14:07;;;;;;;3.85;1.70;;;;;;;;;;6389880;22;19998;-76
2023/12/25 11:16:36;;;;;;;2.75;1.65;;;;;;;;;;6396254;22;20002;-75
2023/12/25 11:19:02;;;;;;;6.03;1.65;;;;;;;;;;6406708;22;20017;-76
2023/12/25 11:21:29;;;;;;;3.70;2.53;;;;;;;;;;6406988;22;20010;-76
2023/12/25 11:23:55;;;;;;;2.28;1.25;;;;;;;;;;6394318;22;20093;-76
2023/12/25 11:26:23;;;;;;;3.25;1.70;;;;;;;;;;6363770;22;20203;-75
2023/12/25 11:28:56;;;;;;;3.88;1.77;;;;;;;;;;6361733;22;20188;-76
2023/12/25 11:31:22;;;;;;;3.95;1.50;;;;;;;;;;6381327;22;20361;-75
2023/12/25 11:33:48;;;;;;;2.38;1.40;;;;;;;;;;6358005;22;20954;-75
2023/12/25 11:36:15;;;;;;;4.10;1.98;;;;;;;;;;6358370;22;20029;-75
2023/12/25 11:38:47;;;;;;;2.55;1.48;;;;;;;;;;6385475;22;20019;-79
2023/12/25 11:41:18;;;;;;;1.98;1.63;;;;;;;;;;6386233;22;19998;-77
2023/12/25 11:43:46;;;;;;;2.63;1.42;;;;;;;;;;6385724;22;20009;-75
2023/12/25 11:46:16;;;;;;;3.35;1.52;;;;;;;;;;6384008;22;20074;-76
2023/12/25 11:49:00;;;;;;;4.47;2.03;;;;;;;;;;6355927;22;20014;-75
2023/12/25 11:51:29;;;;;;;3.67;1.70;;;;;;;;;;6357901;22;20029;-76
2023/12/25 11:53:59;;;;;;;2.55;1.52;;;;;;;;;;6357023;22;20020;-76
2023/12/25 11:56:27;;;;;;;2.45;1.38;;;;;;;;;;6356684;22;20034;-76
2023/12/25 11:58:53;;;;;;;3.45;2.00;;;;;;;;;;6387124;22;20385;-76
2023/12/25 12:01:19;;;;;;;2.97;1.65;;;;;;;;;;6386860;22;20533;-76
2023/12/25 12:03:46;;;;;;;1.70;1.40;;;;;;;;;;6383067;22;20018;-77
2023/12/25 12:06:13;;;;;;;2.40;1.15;;;;;;;;;;6386173;22;20022;-75
2023/12/25 12:08:39;;;;;;;2.85;1.70;;;;;;;;;;6378942;22;20014;-76
2023/12/25 12:11:05;;;;;;;3.50;1.63;;;;;;;;;;6357587;22;20012;-76
2023/12/25 12:13:32;;;;;;;1.92;1.40;;;;;;;;;;6387755;22;20405;-76
2023/12/25 12:15:57;;;;;;;1.42;0.93;;;;;;;;;;6387251;22;20009;-76
2023/12/25 12:18:22;;;;;;;5.57;1.60;;;;;;;;;;6358848;22;20159;-76
2023/12/25 12:20:48;;;;;;;2.58;1.40;;;;;;;;;;6358496;22;20021;-76
2023/12/25 12:23:15;;;;;;;2.28;1.25;;;;;;;;;;6359605;22;20181;-76
2023/12/25 12:25:40;;;;;;;2.97;1.67;;;;;;;;;;6358038;22;20555;-76
2023/12/25 12:28:06;;;;;;;2.63;1.30;;;;;;;;;;6358430;22;20086;-76
2023/12/25 12:30:32;;;;;;;1.35;1.00;;;;;;;;;;6390554;22;20009;-76
2023/12/25 12:32:57;;;;;;;4.47;1.20;;;;;;;;;;6392667;22;20014;-76
2023/12/25 12:35:23;;;;;;;2.28;1.20;;;;;;;;;;6399283;22;20018;-76
2023/12/25 12:37:53;;;;;;;2.63;1.75;;;;;;;;;;6405527;22;20019;-76
2023/12/25 12:40:19;;;;;;;2.13;1.45;;;;;;;;;;6395266;22;20044;-76
2023/12/25 12:42:44;;;;;;;2.47;1.20;;;;;;;;;;6388422;22;20174;-76
2023/12/25 12:45:10;;;;;;;4.22;2.10;;;;;;;;;;6389961;22;20029;-76
2023/12/25 12:47:37;;;;;;;2.67;1.23;;;;;;;;;;6389226;22;20006;-76
2023/12/25 12:50:02;;;;;;;3.60;1.45;;;;;;;;;;6389205;22;19997;-76
2023/12/25 12:52:27;;;;;;;4.40;1.77;;;;;;;;;;6362065;22;20664;-76
2023/12/25 12:54:53;;;;;;;2.35;1.27;;;;;;;;;;6390011;22;20016;-76
2023/12/25 12:57:18;;;;;;;4.00;1.90;;;;;;;;;;6389650;22;20808;-76
2023/12/25 12:59:44;;;;;;;2.40;1.35;;;;;;;;;;6390497;22;20038;-76
2023/12/25 13:02:09;;;;;;;3.25;1.40;;;;;;;;;;6388872;22;20052;-76
2023/12/25 13:04:35;;;;;;;3.13;1.55;;;;;;;;;;6366075;22;20001;-76
2023/12/25 13:07:01;;;;;;;4.28;1.88;;;;;;;;;;6407934;22;20010;-77
2023/12/25 13:09:27;;;;;;;3.22;1.48;;;;;;;;;;6405589;22;20010;-77
2023/12/25 13:11:53;;;;;;;2.15;1.20;;;;;;;;;;6363150;22;20013;-77
2023/12/25 13:14:18;;;;;;;2.00;1.10;;;;;;;;;;6388028;22;20013;-78
2023/12/25 13:16:44;;;;;;;1.73;1.23;;;;;;;;;;6388876;22;20009;-78
2023/12/25 13:19:10;;;;;;;1.00;0.77;;;;;;;;;;6387563;22;20013;-78
2023/12/25 13:21:35;;;;;;;1.95;1.25;;;;;;;;;;6358775;22;20021;-78
2023/12/25 13:24:01;;;;;;;3.97;1.65;;;;;;;;;;6355267;22;20018;-77
2023/12/25 13:26:27;;;;;;;3.20;1.40;;;;;;;;;;6360774;22;20012;-83
2023/12/25 13:28:52;;;;;;;2.38;1.33;;;;;;;;;;6356912;22;20054;-76
2023/12/25 13:31:18;;;;;;;3.28;1.52;;;;;;;;;;6387415;22;20010;-77
2023/12/25 13:33:45;;;;;;;2.92;1.58;;;;;;;;;;6354856;22;20025;-76
2023/12/25 13:36:12;;;;;;;2.33;1.20;;;;;;;;;;6360041;22;20006;-76
2023/12/25 13:38:38;;;;;;;1.98;1.20;;;;;;;;;;6387931;22;20006;-76
2023/12/25 13:41:03;;;;;;;1.38;1.05;;;;;;;;;;6358714;22;20516;-77
2023/12/25 13:43:29;;;;;;;2.55;1.60;;;;;;;;;;6388502;22;19994;-76
2023/12/25 13:45:54;;;;;;;3.58;1.70;;;;;;;;;;6359567;22;20017;-76
2023/12/25 13:48:21;;;;;;;6.95;1.60;;;;;;;;;;6387957;22;20014;-76
2023/12/25 13:50:47;;;;;;;4.20;1.90;;;;;;;;;;6361638;22;20014;-77
2023/12/25 13:53:13;;;;;;;4.60;1.90;;;;;;;;;;6396344;22;20533;-75
2023/12/25 13:55:38;;;;;;;1.98;1.25;;;;;;;;;;6377108;22;20019;-77
2023/12/25 13:58:03;;;;;;;3.10;2.05;;;;;;;;;;6378969;22;20008;-76
2023/12/25 14:00:29;;;;;;;2.95;1.60;;;;;;;;;;6395636;22;20465;-76
2023/12/25 14:02:55;;;;;;;4.18;1.63;;;;;;;;;;6352094;22;20025;-76
2023/12/25 14:05:20;;;;;;;3.05;1.42;;;;;;;;;;6390012;22;20029;-76
2023/12/25 14:07:46;;;;;;;3.22;1.27;;;;;;;;;;6385667;22;20073;-76
2023/12/25 14:10:11;;;;;;;4.88;1.73;;;;;;;;;;6389329;22;20606;-76
2023/12/25 14:12:38;;;;;;;4.55;2.13;;;;;;;;;;6360836;22;20014;-76
2023/12/25 14:15:05;;;;;;;5.13;2.13;;;;;;;;;;6389785;22;20010;-77
2023/12/25 14:17:31;;;;;;;2.92;1.58;;;;;;;;;;6354267;22;20268;-76
2023/12/25 14:19:56;;;;;;;2.90;1.45;;;;;;;;;;6362099;22;20092;-77
2023/12/25 14:22:22;;;;;;;2.85;1.80;;;;;;;;;;6391343;22;20495;-77
2023/12/25 14:24:47;;;;;;;2.13;1.17;;;;;;;;;;6381014;22;20438;-77
2023/12/25 14:27:13;;;;;;;1.75;1.05;;;;;;;;;;6364205;22;20034;-77
2023/12/25 14:29:38;;;;;;;4.38;2.20;;;;;;;;;;6387841;22;20360;-77
2023/12/25 14:32:04;;;;;;;5.47;1.98;;;;;;;;;;6382969;22;20002;-77
2023/12/25 14:34:30;;;;;;;3.58;1.45;;;;;;;;;;6360574;22;20452;-77